createdAt,value
2018-08-17T04:00:35.206Z,14.11
2018-08-17T04:01:35.156Z,14.16
2018-08-17T04:02:35.155Z,14.13
2018-08-17T04:03:35.127Z,14.05
2018-08-17T04:04:35.135Z,14.12
2018-08-17T04:05:35.141Z,14.02
2018-08-17T04:06:35.123Z,14.06
2018-08-17T04:07:35.113Z,14.08
2018-08-17T04:08:35.083Z,14.01
2018-08-17T04:09:35.067Z,14.06
2018-08-17T04:10:35.052Z,14.11
2018-08-17T04:11:35.039Z,14.08
2018-08-17T04:12:35.051Z,14.05
2018-08-17T04:13:35.014Z,14.09
2018-08-17T04:14:35.005Z,13.99
2018-08-17T04:15:35.090Z,14.04
2018-08-17T04:16:34.982Z,14.02
2018-08-17T04:17:34.969Z,13.96
2018-08-17T04:18:34.970Z,13.96
2018-08-17T04:19:34.979Z,13.94
2018-08-17T04:20:34.949Z,14.02
2018-08-17T04:21:34.926Z,13.98
2018-08-17T04:22:34.916Z,13.96
2018-08-17T04:23:34.914Z,13.91
2018-08-17T04:24:34.895Z,14.04
2018-08-17T04:25:34.882Z,14.08
2018-08-17T04:26:34.870Z,14.04
2018-08-17T04:27:34.887Z,14.08
2018-08-17T04:28:34.867Z,14.08
2018-08-17T04:29:34.852Z,14.12
2018-08-17T04:30:34.881Z,14.06
2018-08-17T04:31:34.815Z,14.04
2018-08-17T04:32:34.804Z,14.02
2018-08-17T04:33:34.807Z,14.04
2018-08-17T04:34:34.782Z,14.06
2018-08-17T04:35:34.831Z,13.98
2018-08-17T04:36:34.760Z,14.02
2018-08-17T04:37:34.752Z,14.06
2018-08-17T04:38:34.753Z,13.96
2018-08-17T04:39:34.755Z,14.01
2018-08-17T04:40:34.749Z,13.94
2018-08-17T04:41:34.703Z,14.04
2018-08-17T04:42:34.692Z,13.96
2018-08-17T04:43:34.751Z,13.99
2018-08-17T04:44:34.716Z,14.01
2018-08-17T04:45:34.666Z,14.02
2018-08-17T04:46:34.650Z,14.01
2018-08-17T04:47:34.639Z,13.99
2018-08-17T04:48:34.696Z,13.94
2018-08-17T04:49:34.617Z,13.99
2018-08-17T04:50:34.603Z,13.96
2018-08-17T04:51:34.595Z,14.01
2018-08-17T04:52:34.581Z,13.94
2018-08-17T04:53:34.584Z,13.98
2018-08-17T04:54:34.560Z,13.94
2018-08-17T04:55:34.549Z,13.98
2018-08-17T04:56:34.540Z,13.94
2018-08-17T04:57:34.559Z,14.04
2018-08-17T04:58:34.529Z,13.90
2018-08-17T04:59:34.511Z,14.05
2018-08-17T05:00:34.496Z,14.06
2018-08-17T05:01:34.483Z,14.04
2018-08-17T05:02:34.475Z,14.06
2018-08-17T05:03:34.473Z,13.99
2018-08-17T05:04:34.448Z,14.05
2018-08-17T05:05:34.442Z,14.04
2018-08-17T05:06:34.428Z,14.09
2018-08-17T05:07:34.430Z,14.13
2018-08-17T05:08:34.419Z,14.08
2018-08-17T05:09:34.394Z,14.16
2018-08-17T05:10:34.386Z,14.21
2018-08-17T05:11:34.371Z,14.23
2018-08-17T05:12:34.361Z,14.23
2018-08-17T05:13:34.360Z,14.20
2018-08-17T05:14:34.343Z,14.23
2018-08-17T05:15:34.326Z,14.16
2018-08-17T05:16:34.319Z,14.17
2018-08-17T05:17:34.304Z,14.19
2018-08-17T05:18:34.311Z,14.27
2018-08-17T05:19:34.284Z,14.26
2018-08-17T05:20:34.271Z,14.24
2018-08-17T05:21:34.425Z,14.27
2018-08-17T05:22:34.252Z,14.24
2018-08-17T05:23:34.246Z,14.27
2018-08-17T05:24:34.226Z,14.30
2018-08-17T05:25:34.215Z,14.29
2018-08-17T05:26:34.204Z,14.30
2018-08-17T05:27:34.190Z,14.24
2018-08-17T05:28:34.199Z,14.26
2018-08-17T05:29:34.172Z,14.27
2018-08-17T05:30:34.189Z,14.35
2018-08-17T05:31:34.150Z,14.39
2018-08-17T05:32:34.137Z,14.38
2018-08-17T05:33:34.134Z,14.41
2018-08-17T05:34:34.115Z,14.46
2018-08-17T05:35:34.104Z,14.48
2018-08-17T05:36:34.126Z,14.44
2018-08-17T05:37:34.084Z,14.49
2018-08-17T05:38:34.089Z,14.45
2018-08-17T05:39:34.061Z,14.48
2018-08-17T05:40:34.047Z,14.45
2018-08-17T05:41:34.039Z,14.57
2018-08-17T05:42:34.025Z,14.54
2018-08-17T05:43:34.036Z,14.52
2018-08-17T05:44:34.003Z,14.48
2018-08-17T05:45:33.991Z,14.41
2018-08-17T05:46:33.983Z,14.52
2018-08-17T05:47:33.976Z,14.49
2018-08-17T05:48:33.972Z,14.48
2018-08-17T05:49:33.946Z,14.53
2018-08-17T05:50:33.938Z,14.49
2018-08-17T05:51:33.927Z,14.53
2018-08-17T05:52:33.919Z,14.57
2018-08-17T05:53:33.916Z,14.60
2018-08-17T05:54:33.896Z,14.56
2018-08-17T05:55:33.882Z,14.52
2018-08-17T05:56:33.903Z,14.54
2018-08-17T05:57:33.872Z,14.66
2018-08-17T05:58:33.892Z,14.67
2018-08-17T05:59:33.839Z,14.63
2018-08-17T06:00:33.826Z,14.71
2018-08-17T06:01:33.817Z,14.67
2018-08-17T06:02:33.815Z,14.75
2018-08-17T06:03:33.804Z,14.74
2018-08-17T06:04:33.790Z,14.85
2018-08-17T06:05:33.774Z,14.78
2018-08-17T06:06:33.758Z,14.83
2018-08-17T06:07:33.757Z,14.95
2018-08-17T06:08:33.759Z,14.93
2018-08-17T06:09:33.732Z,14.97
2018-08-17T06:10:33.719Z,15.03
2018-08-17T06:11:33.734Z,15.00
2018-08-17T06:12:33.692Z,14.94
2018-08-17T06:13:33.691Z,14.94
2018-08-17T06:14:33.733Z,15.00
2018-08-17T06:15:33.660Z,15.11
2018-08-17T06:16:33.653Z,15.05
2018-08-17T06:17:33.642Z,15.11
2018-08-17T06:18:33.676Z,15.19
2018-08-17T06:19:33.637Z,15.18
2018-08-17T06:20:33.606Z,15.33
2018-08-17T06:21:33.641Z,15.48
2018-08-17T06:22:33.583Z,15.74
2018-08-17T06:23:33.575Z,15.93
2018-08-17T06:24:33.583Z,15.96
2018-08-17T06:25:33.578Z,16.26
2018-08-17T06:26:33.538Z,16.30
2018-08-17T06:27:33.527Z,16.54
2018-08-17T06:28:33.519Z,16.73
2018-08-17T06:29:33.523Z,16.78
2018-08-17T06:30:33.492Z,16.85
2018-08-17T06:31:33.498Z,16.98
2018-08-17T06:32:33.474Z,17.28
2018-08-17T06:33:33.461Z,17.49
2018-08-17T06:34:33.463Z,17.62
2018-08-17T06:35:33.438Z,17.77
2018-08-17T06:36:33.427Z,18.04
2018-08-17T06:37:33.416Z,18.19
2018-08-17T06:38:33.408Z,18.35
2018-08-17T06:39:33.408Z,18.53
2018-08-17T06:40:33.386Z,18.62
2018-08-17T06:41:33.375Z,18.74
2018-08-17T06:42:33.361Z,18.84
2018-08-17T06:43:33.348Z,19.01
2018-08-17T06:44:33.351Z,19.07
2018-08-17T06:45:33.331Z,19.21
2018-08-17T06:46:33.321Z,19.35
2018-08-17T06:47:33.306Z,19.53
2018-08-17T06:48:33.295Z,19.70
2018-08-17T06:49:33.296Z,19.85
2018-08-17T06:50:33.323Z,19.90
2018-08-17T06:51:33.260Z,20.05
2018-08-17T06:52:33.247Z,20.04
2018-08-17T06:53:33.238Z,20.08
2018-08-17T06:54:33.241Z,20.25
2018-08-17T06:55:33.221Z,20.41
2018-08-17T06:56:33.205Z,20.57
2018-08-17T06:57:33.197Z,20.63
2018-08-17T06:58:33.185Z,20.60
2018-08-17T06:59:33.184Z,20.78
2018-08-17T07:00:33.163Z,20.97
2018-08-17T07:01:33.157Z,21.06
2018-08-17T07:02:33.195Z,21.15
2018-08-17T07:03:33.129Z,21.30
2018-08-17T07:04:33.129Z,21.45
2018-08-17T07:05:33.107Z,21.55
2018-08-17T07:06:33.104Z,21.70
2018-08-17T07:07:33.088Z,21.81
2018-08-17T07:08:33.102Z,21.99
2018-08-17T07:09:33.145Z,22.15
2018-08-17T07:10:33.068Z,22.20
2018-08-17T07:11:33.039Z,22.21
2018-08-17T07:12:33.028Z,22.29
2018-08-17T07:13:33.015Z,22.39
2018-08-17T07:14:33.018Z,22.56
2018-08-17T07:15:33.003Z,22.72
2018-08-17T07:16:33.069Z,22.88
2018-08-17T07:17:32.978Z,23.04
2018-08-17T07:18:32.960Z,23.22
2018-08-17T07:19:32.960Z,23.45
2018-08-17T07:20:32.940Z,23.45
2018-08-17T07:21:32.932Z,23.62
2018-08-17T07:22:32.918Z,23.52
2018-08-17T07:23:32.907Z,23.47
2018-08-17T07:24:32.912Z,23.44
2018-08-17T07:25:32.891Z,23.71
2018-08-17T07:26:32.880Z,23.82
2018-08-17T07:27:32.921Z,23.86
2018-08-17T07:28:32.852Z,23.78
2018-08-17T07:29:32.860Z,23.75
2018-08-17T07:30:32.833Z,23.79
2018-08-17T07:31:32.820Z,23.75
2018-08-17T07:32:32.815Z,23.79
2018-08-17T07:33:32.799Z,23.77
2018-08-17T07:34:32.802Z,23.97
2018-08-17T07:35:32.819Z,24.08
2018-08-17T07:36:32.777Z,24.09
2018-08-17T07:37:32.757Z,24.46
2018-08-17T07:38:32.743Z,24.60
2018-08-17T07:39:32.747Z,24.83
2018-08-17T07:40:32.721Z,24.89
2018-08-17T07:41:32.819Z,25.05
2018-08-17T07:42:32.700Z,25.19
2018-08-17T07:43:32.699Z,25.30
2018-08-17T07:44:32.690Z,25.48
2018-08-17T07:45:32.670Z,25.71
2018-08-17T07:46:32.659Z,25.81
2018-08-17T07:47:32.646Z,26.03
2018-08-17T07:48:32.634Z,26.11
2018-08-17T07:49:32.636Z,26.34
2018-08-17T07:50:32.612Z,26.46
2018-08-17T07:51:32.602Z,26.60
2018-08-17T07:52:32.596Z,26.79
2018-08-17T07:53:32.586Z,26.94
2018-08-17T07:54:32.589Z,27.02
2018-08-17T07:55:32.559Z,26.94
2018-08-17T07:56:32.548Z,27.02
2018-08-17T07:57:32.574Z,27.20
2018-08-17T07:58:32.585Z,27.45
2018-08-17T07:59:32.542Z,27.68
2018-08-17T08:00:32.594Z,27.81
2018-08-17T08:01:32.504Z,28.20
2018-08-17T08:02:32.481Z,28.46
2018-08-17T08:03:32.594Z,28.74
2018-08-17T08:04:32.461Z,29.05
2018-08-17T08:05:32.462Z,29.07
2018-08-17T08:06:32.439Z,29.32
2018-08-17T08:07:32.431Z,29.41
2018-08-17T08:08:32.418Z,29.45
2018-08-17T08:09:32.408Z,29.66
2018-08-17T08:10:32.808Z,29.94
2018-08-17T08:11:32.384Z,30.16
2018-08-17T08:12:32.374Z,30.25
2018-08-17T08:13:32.374Z,30.19
2018-08-17T08:14:32.355Z,30.25
2018-08-17T08:15:32.352Z,30.22
2018-08-17T08:16:32.331Z,30.37
2018-08-17T08:17:32.325Z,30.48
2018-08-17T08:18:32.316Z,30.53
2018-08-17T08:19:32.299Z,30.56
2018-08-17T08:20:32.321Z,30.70
2018-08-17T08:21:32.280Z,30.86
2018-08-17T08:22:32.266Z,30.94
2018-08-17T08:23:32.256Z,31.20
2018-08-17T08:24:32.245Z,31.52
2018-08-17T08:25:32.246Z,31.41
2018-08-17T08:26:32.222Z,31.52
2018-08-17T08:27:32.214Z,31.92
2018-08-17T08:28:32.204Z,31.79
2018-08-17T08:29:32.190Z,31.74
2018-08-17T08:30:32.190Z,31.68
2018-08-17T08:31:32.171Z,31.67
2018-08-17T08:32:32.236Z,31.40
2018-08-17T08:33:32.147Z,31.74
2018-08-17T08:34:32.139Z,31.65
2018-08-17T08:35:32.136Z,31.82
2018-08-17T08:36:32.114Z,31.98
2018-08-17T08:37:32.115Z,31.98
2018-08-17T08:38:32.097Z,32.09
2018-08-17T08:39:32.082Z,31.92
2018-08-17T08:40:32.084Z,32.13
2018-08-17T08:41:32.112Z,32.06
2018-08-17T08:42:32.049Z,32.09
2018-08-17T08:43:32.038Z,32.28
2018-08-17T08:44:32.030Z,32.51
2018-08-17T08:45:32.058Z,32.54
2018-08-17T08:46:32.005Z,32.66
2018-08-17T08:47:31.994Z,32.84
2018-08-17T08:48:31.987Z,32.78
2018-08-17T08:49:31.974Z,32.81
2018-08-17T08:50:31.973Z,32.78
2018-08-17T08:51:31.952Z,32.88
2018-08-17T08:52:31.942Z,33.14
2018-08-17T08:53:31.930Z,33.41
2018-08-17T08:54:31.920Z,33.24
2018-08-17T08:55:31.920Z,33.12
2018-08-17T08:56:31.897Z,33.21
2018-08-17T08:57:31.885Z,33.15
2018-08-17T08:58:31.876Z,33.33
2018-08-17T08:59:31.865Z,33.50
2018-08-17T09:00:31.873Z,33.62
2018-08-17T09:01:31.879Z,33.45
2018-08-17T09:02:31.832Z,33.60
2018-08-17T09:03:31.822Z,34.16
2018-08-17T09:04:31.821Z,34.60
2018-08-17T09:05:31.816Z,34.49
2018-08-17T09:06:31.788Z,34.27
2018-08-17T09:07:31.778Z,34.48
2018-08-17T09:08:31.767Z,34.86
2018-08-17T09:09:31.758Z,34.88
2018-08-17T09:10:31.960Z,34.60
2018-08-17T09:11:31.733Z,34.53
2018-08-17T09:12:31.725Z,33.68
2018-08-17T09:13:31.728Z,32.54
2018-08-17T09:14:31.704Z,31.91
2018-08-17T09:15:31.703Z,32.59
2018-08-17T09:16:31.684Z,33.22
2018-08-17T09:17:31.672Z,33.93
2018-08-17T09:18:31.658Z,34.49
2018-08-17T09:19:31.649Z,34.49
2018-08-17T09:20:31.699Z,34.58
2018-08-17T09:21:31.627Z,35.18
2018-08-17T09:22:31.623Z,35.66
2018-08-17T09:23:31.604Z,35.65
2018-08-17T09:24:31.595Z,35.69
2018-08-17T09:25:31.599Z,35.47
2018-08-17T09:26:31.581Z,35.74
2018-08-17T09:27:31.561Z,36.13
2018-08-17T09:28:31.563Z,36.05
2018-08-17T09:29:31.543Z,35.77
2018-08-17T09:30:31.534Z,35.32
2018-08-17T09:31:31.532Z,35.10
2018-08-17T09:32:31.509Z,35.39
2018-08-17T09:33:31.500Z,35.49
2018-08-17T09:34:31.485Z,35.40
2018-08-17T09:35:31.476Z,35.15
2018-08-17T09:36:31.475Z,34.71
2018-08-17T09:37:31.453Z,34.42
2018-08-17T09:38:31.443Z,34.21
2018-08-17T09:39:31.433Z,33.89
2018-08-17T09:40:31.420Z,33.53
2018-08-17T09:41:31.427Z,32.65
2018-08-17T09:42:31.400Z,31.82
2018-08-17T09:43:31.392Z,31.45
2018-08-17T09:44:31.377Z,31.74
2018-08-17T09:45:31.369Z,31.76
2018-08-17T09:46:31.367Z,31.05
2018-08-17T09:47:31.345Z,30.75
2018-08-17T09:48:31.333Z,30.85
2018-08-17T09:49:31.328Z,31.54
2018-08-17T09:50:31.312Z,32.06
2018-08-17T09:51:31.318Z,32.24
2018-08-17T09:52:31.291Z,32.47
2018-08-17T09:53:31.281Z,32.46
2018-08-17T09:54:31.272Z,32.40
2018-08-17T09:55:31.259Z,31.76
2018-08-17T09:56:31.263Z,31.28
2018-08-17T09:57:31.280Z,30.86
2018-08-17T09:58:31.230Z,30.53
2018-08-17T09:59:31.223Z,30.19
2018-08-17T10:00:31.208Z,30.08
2018-08-17T10:01:31.207Z,30.08
2018-08-17T10:02:31.182Z,29.86
2018-08-17T10:03:31.173Z,29.97
2018-08-17T10:04:31.160Z,30.07
2018-08-17T10:05:31.152Z,30.07
2018-08-17T10:06:31.152Z,30.01
2018-08-17T10:07:31.129Z,30.13
2018-08-17T10:08:31.118Z,30.22
2018-08-17T10:09:31.113Z,30.23
2018-08-17T10:10:31.098Z,30.28
2018-08-17T10:11:31.096Z,30.30
2018-08-17T10:12:31.076Z,30.36
2018-08-17T10:13:31.065Z,30.36
2018-08-17T10:14:31.055Z,30.23
2018-08-17T10:15:31.047Z,30.15
2018-08-17T10:16:31.042Z,30.07
2018-08-17T10:17:31.023Z,30.10
2018-08-17T10:18:31.014Z,30.00
2018-08-17T10:19:31.002Z,29.97
2018-08-17T10:20:30.991Z,29.97
2018-08-17T10:21:31.476Z,29.97
2018-08-17T10:22:30.969Z,29.92
2018-08-17T10:23:30.963Z,29.81
2018-08-17T10:24:30.944Z,29.85
2018-08-17T10:25:30.937Z,29.81
2018-08-17T10:26:30.936Z,29.71
2018-08-17T10:27:30.917Z,29.69
2018-08-17T10:28:30.902Z,29.62
2018-08-17T10:29:30.893Z,29.69
2018-08-17T10:30:30.881Z,29.67
2018-08-17T10:31:30.883Z,29.52
2018-08-17T10:32:30.860Z,29.52
2018-08-17T10:33:30.849Z,29.58
2018-08-17T10:34:30.843Z,29.73
2018-08-17T10:35:30.827Z,29.79
2018-08-17T10:36:30.829Z,29.78
2018-08-17T10:37:30.814Z,29.78
2018-08-17T10:38:30.794Z,29.74
2018-08-17T10:39:30.784Z,29.86
2018-08-17T10:40:30.774Z,30.01
2018-08-17T10:41:30.773Z,30.11
2018-08-17T10:42:30.751Z,30.15
2018-08-17T10:43:30.744Z,30.22
2018-08-17T10:44:30.733Z,30.16
2018-08-17T10:45:30.719Z,30.21
2018-08-17T10:46:30.718Z,30.23
2018-08-17T10:47:30.697Z,30.28
2018-08-17T10:48:30.689Z,30.22
2018-08-17T10:49:30.681Z,30.29
2018-08-17T10:50:30.670Z,30.30
2018-08-17T10:51:30.670Z,30.26
2018-08-17T10:52:30.644Z,30.29
2018-08-17T10:53:30.632Z,30.37
2018-08-17T10:54:30.622Z,30.40
2018-08-17T10:55:30.667Z,30.49
2018-08-17T10:56:30.611Z,30.46
2018-08-17T10:57:30.649Z,30.48
2018-08-17T10:58:30.708Z,30.51
2018-08-17T10:59:30.569Z,30.44
2018-08-17T11:00:30.696Z,30.44
2018-08-17T11:01:30.689Z,30.51
2018-08-17T11:02:30.540Z,30.44
2018-08-17T11:03:30.525Z,30.40
2018-08-17T11:04:30.512Z,30.34
2018-08-17T11:05:30.504Z,30.26
2018-08-17T11:06:30.502Z,30.28
2018-08-17T11:07:30.480Z,30.23
2018-08-17T11:08:30.469Z,30.10
2018-08-17T11:09:30.459Z,30.07
2018-08-17T11:10:30.449Z,30.18
2018-08-17T11:11:30.454Z,30.11
2018-08-17T11:12:30.426Z,29.95
2018-08-17T11:13:30.420Z,29.95
2018-08-17T11:14:30.467Z,29.94
2018-08-17T11:15:30.394Z,29.81
2018-08-17T11:16:30.394Z,29.78
2018-08-17T11:17:30.373Z,29.71
2018-08-17T11:18:30.365Z,29.70
2018-08-17T11:19:30.353Z,29.66
2018-08-17T11:20:30.340Z,29.62
2018-08-17T11:21:30.342Z,29.67
2018-08-17T11:22:30.320Z,29.60
2018-08-17T11:23:30.317Z,29.63
2018-08-17T11:24:30.296Z,29.62
2018-08-17T11:25:30.294Z,29.74
2018-08-17T11:26:30.306Z,29.81
2018-08-17T11:27:30.265Z,29.86
2018-08-17T11:28:30.253Z,29.92
2018-08-17T11:29:30.243Z,29.99
2018-08-17T11:30:30.261Z,29.95
2018-08-17T11:31:30.220Z,29.95
2018-08-17T11:32:30.234Z,30.03
2018-08-17T11:33:30.200Z,29.99
2018-08-17T11:34:30.318Z,30.01
2018-08-17T11:35:30.178Z,30.07
2018-08-17T11:36:30.169Z,29.94
2018-08-17T11:37:30.167Z,29.91
2018-08-17T11:38:30.145Z,29.91
2018-08-17T11:39:30.137Z,29.92
2018-08-17T11:40:30.125Z,29.78
2018-08-17T11:41:30.258Z,29.74
2018-08-17T11:42:30.118Z,29.66
2018-08-17T11:43:30.094Z,29.62
2018-08-17T11:44:30.082Z,29.58
2018-08-17T11:45:30.071Z,29.57
2018-08-17T11:46:30.164Z,29.44
2018-08-17T11:47:30.060Z,29.48
2018-08-17T11:48:30.039Z,29.36
2018-08-17T11:49:30.113Z,29.37
2018-08-17T11:50:30.018Z,29.33
2018-08-17T11:51:30.035Z,29.27
2018-08-17T11:52:30.006Z,29.14
2018-08-17T11:53:29.995Z,29.10
2018-08-17T11:54:29.989Z,29.05
2018-08-17T11:55:29.968Z,29.02
2018-08-17T11:56:29.951Z,29.05
2018-08-17T11:57:29.951Z,29.00
2018-08-17T11:58:30.232Z,28.85
2018-08-17T11:59:29.923Z,28.94
2018-08-17T12:00:29.910Z,28.88
2018-08-17T12:01:30.047Z,28.89
2018-08-17T12:02:30.053Z,28.87
2018-08-17T12:03:29.877Z,28.80
2018-08-17T12:04:29.941Z,28.82
2018-08-17T12:05:29.944Z,28.80
2018-08-17T12:06:29.850Z,28.79
2018-08-17T12:07:29.846Z,28.72
2018-08-17T12:08:29.880Z,28.61
2018-08-17T12:09:29.813Z,28.64
2018-08-17T12:10:29.803Z,28.61
2018-08-17T12:11:29.792Z,28.65
2018-08-17T12:12:29.788Z,28.60
2018-08-17T12:13:29.850Z,28.52
2018-08-17T12:14:29.758Z,28.43
2018-08-17T12:15:29.747Z,28.50
2018-08-17T12:16:29.734Z,28.46
2018-08-17T12:17:29.919Z,28.45
2018-08-17T12:18:30.282Z,28.48
2018-08-17T12:19:29.702Z,28.54
2018-08-17T12:20:29.792Z,28.55
2018-08-17T12:21:29.680Z,28.72
2018-08-17T12:22:29.685Z,28.73
2018-08-17T12:23:29.663Z,28.72
2018-08-17T12:24:29.776Z,28.74
2018-08-17T12:25:29.642Z,28.80
2018-08-17T12:26:29.628Z,28.85
2018-08-17T12:27:29.626Z,28.80
2018-08-17T12:28:29.626Z,28.80
2018-08-17T12:29:29.597Z,28.82
2018-08-17T12:30:29.582Z,28.92
2018-08-17T12:31:29.572Z,28.85
2018-08-17T12:32:29.576Z,28.95
2018-08-17T12:33:29.552Z,28.79
2018-08-17T12:34:29.541Z,28.77
2018-08-17T12:35:29.530Z,28.77
2018-08-17T12:36:29.526Z,28.82
2018-08-17T12:37:29.519Z,28.79
2018-08-17T12:38:29.498Z,28.80
2018-08-17T12:39:29.495Z,28.79
2018-08-17T12:40:29.478Z,28.72
2018-08-17T12:41:29.468Z,28.79
2018-08-17T12:42:29.474Z,28.80
2018-08-17T12:43:29.443Z,28.74
2018-08-17T12:44:29.434Z,28.77
2018-08-17T12:45:29.422Z,28.74
2018-08-17T12:46:29.467Z,28.73
2018-08-17T12:47:29.409Z,28.72
2018-08-17T12:48:29.389Z,28.74
2018-08-17T12:49:29.388Z,28.73
2018-08-17T12:50:29.374Z,28.80
2018-08-17T12:51:29.357Z,28.65
2018-08-17T12:52:29.386Z,28.65
2018-08-17T12:53:29.334Z,28.60
2018-08-17T12:54:29.323Z,28.61
2018-08-17T12:55:29.313Z,28.65
2018-08-17T12:56:29.303Z,28.67
2018-08-17T12:57:29.303Z,28.61
2018-08-17T12:58:29.284Z,28.60
2018-08-17T12:59:29.279Z,28.55
2018-08-17T13:00:29.261Z,28.58
2018-08-17T13:01:29.247Z,28.51
2018-08-17T13:02:29.256Z,28.60
2018-08-17T13:03:29.228Z,28.64
2018-08-17T13:04:29.217Z,28.69
2018-08-17T13:05:29.206Z,28.57
2018-08-17T13:06:29.196Z,28.67
2018-08-17T13:07:29.198Z,28.69
2018-08-17T13:08:29.172Z,28.79
2018-08-17T13:09:29.162Z,28.85
2018-08-17T13:10:29.154Z,28.77
2018-08-17T13:11:29.156Z,28.82
2018-08-17T13:12:29.144Z,28.77
2018-08-17T13:13:29.118Z,28.79
2018-08-17T13:14:29.114Z,28.80
2018-08-17T13:15:29.099Z,28.89
2018-08-17T13:16:29.088Z,28.83
2018-08-17T13:17:29.085Z,28.88
2018-08-17T13:18:29.063Z,28.85
2018-08-17T13:19:29.054Z,28.83
2018-08-17T13:20:29.079Z,28.88
2018-08-17T13:21:29.032Z,28.79
2018-08-17T13:22:29.030Z,28.76
2018-08-17T13:23:29.103Z,28.79
2018-08-17T13:24:29.001Z,28.79
2018-08-17T13:25:28.991Z,28.77
2018-08-17T13:26:28.977Z,28.77
2018-08-17T13:27:28.976Z,28.88
2018-08-17T13:28:28.958Z,28.89
2018-08-17T13:29:28.945Z,28.88
2018-08-17T13:30:28.938Z,28.95
2018-08-17T13:31:28.924Z,28.85
2018-08-17T13:32:28.938Z,28.85
2018-08-17T13:33:28.909Z,28.83
2018-08-17T13:34:28.895Z,28.77
2018-08-17T13:35:28.885Z,28.77
2018-08-17T13:36:28.870Z,28.76
2018-08-17T13:37:28.865Z,28.77
2018-08-17T13:38:28.859Z,28.80
2018-08-17T13:39:28.843Z,28.74
2018-08-17T13:40:28.828Z,28.77
2018-08-17T13:41:28.821Z,28.76
2018-08-17T13:42:28.810Z,28.73
2018-08-17T13:43:28.807Z,28.67
2018-08-17T13:44:28.790Z,28.61
2018-08-17T13:45:28.773Z,28.65
2018-08-17T13:46:28.761Z,28.58
2018-08-17T13:47:28.752Z,28.62
2018-08-17T13:48:28.768Z,28.58
2018-08-17T13:49:28.729Z,28.65
2018-08-17T13:50:28.720Z,28.64
2018-08-17T13:51:28.710Z,28.65
2018-08-17T13:52:28.696Z,28.51
2018-08-17T13:53:28.695Z,28.48
2018-08-17T13:54:28.676Z,28.46
2018-08-17T13:55:28.744Z,28.45
2018-08-17T13:56:28.654Z,28.45
2018-08-17T13:57:28.661Z,28.48
2018-08-17T13:58:28.643Z,28.43
2018-08-17T13:59:28.624Z,28.43
2018-08-17T14:00:28.611Z,28.35
2018-08-17T14:01:28.604Z,28.32
2018-08-17T14:02:28.590Z,28.30
2018-08-17T14:03:28.590Z,28.17
2018-08-17T14:04:28.714Z,28.23
2018-08-17T14:05:28.558Z,28.32
2018-08-17T14:06:28.547Z,28.36
2018-08-17T14:07:28.534Z,28.42
2018-08-17T14:08:28.538Z,28.46
2018-08-17T14:09:28.637Z,28.46
2018-08-17T14:10:28.569Z,28.55
2018-08-17T14:11:28.491Z,28.50
2018-08-17T14:12:28.481Z,28.61
2018-08-17T14:13:28.481Z,28.82
2018-08-17T14:14:28.460Z,28.80
2018-08-17T14:15:28.534Z,28.94
2018-08-17T14:16:28.440Z,28.94
2018-08-17T14:17:28.426Z,29.08
2018-08-17T14:18:28.428Z,29.02
2018-08-17T14:19:28.475Z,29.10
2018-08-17T14:20:28.394Z,29.08
2018-08-17T14:21:28.384Z,29.18
2018-08-17T14:22:28.460Z,29.32
2018-08-17T14:23:28.486Z,29.35
2018-08-17T14:24:28.484Z,29.35
2018-08-17T14:25:28.341Z,29.39
2018-08-17T14:26:28.328Z,29.36
2018-08-17T14:27:28.327Z,29.49
2018-08-17T14:28:28.340Z,29.48
2018-08-17T14:29:28.315Z,29.55
2018-08-17T14:30:28.286Z,29.58
2018-08-17T14:31:28.292Z,29.58
2018-08-17T14:32:28.265Z,29.55
2018-08-17T14:33:28.281Z,29.69
2018-08-17T14:34:28.402Z,29.62
2018-08-17T14:35:28.236Z,29.58
2018-08-17T14:36:28.222Z,29.55
2018-08-17T14:37:28.214Z,29.64
2018-08-17T14:38:28.210Z,29.62
2018-08-17T14:39:28.191Z,29.64
2018-08-17T14:40:28.270Z,29.45
2018-08-17T14:41:28.174Z,29.48
2018-08-17T14:42:28.161Z,29.48
2018-08-17T14:43:28.157Z,29.51
2018-08-17T14:44:28.134Z,29.44
2018-08-17T14:45:28.130Z,29.44
2018-08-17T14:46:28.186Z,29.37
2018-08-17T14:47:28.102Z,29.36
2018-08-17T14:48:28.101Z,29.39
2018-08-17T14:49:28.083Z,29.32
2018-08-17T14:50:28.078Z,29.27
2018-08-17T14:51:28.057Z,29.23
2018-08-17T14:52:28.075Z,29.10
2018-08-17T14:53:28.181Z,29.14
2018-08-17T14:54:28.029Z,29.08
2018-08-17T14:55:28.016Z,29.12
2018-08-17T14:56:28.005Z,29.10
2018-08-17T14:57:27.994Z,29.02
2018-08-17T14:58:27.993Z,28.98
2018-08-17T14:59:27.975Z,28.87
2018-08-17T15:00:27.964Z,28.87
2018-08-17T15:01:27.952Z,28.91
2018-08-17T15:02:27.941Z,28.79
2018-08-17T15:03:27.940Z,28.74
2018-08-17T15:04:27.919Z,28.83
2018-08-17T15:05:27.908Z,28.85
2018-08-17T15:06:27.895Z,28.83
2018-08-17T15:07:27.885Z,28.85
2018-08-17T15:08:27.888Z,28.85
2018-08-17T15:09:27.863Z,28.82
2018-08-17T15:10:27.866Z,28.85
2018-08-17T15:11:27.841Z,28.80
2018-08-17T15:12:27.832Z,28.82
2018-08-17T15:13:27.900Z,28.91
2018-08-17T15:14:27.808Z,28.83
2018-08-17T15:15:27.804Z,28.72
2018-08-17T15:16:27.786Z,28.51
2018-08-17T15:17:27.777Z,28.38
2018-08-17T15:18:27.779Z,28.23
2018-08-17T15:19:27.756Z,28.08
2018-08-17T15:20:27.745Z,27.95
2018-08-17T15:21:27.735Z,27.88
2018-08-17T15:22:27.722Z,27.81
2018-08-17T15:23:27.724Z,27.76
2018-08-17T15:24:27.700Z,27.68
2018-08-17T15:25:27.689Z,27.71
2018-08-17T15:26:27.718Z,27.62
2018-08-17T15:27:27.667Z,27.68
2018-08-17T15:28:27.705Z,27.69
2018-08-17T15:29:27.648Z,27.63
2018-08-17T15:30:27.654Z,27.65
2018-08-17T15:31:27.623Z,27.71
2018-08-17T15:32:27.614Z,27.65
2018-08-17T15:33:27.621Z,27.61
2018-08-17T15:34:27.592Z,27.62
2018-08-17T15:35:27.583Z,27.61
2018-08-17T15:36:27.574Z,27.66
2018-08-17T15:37:27.562Z,27.65
2018-08-17T15:38:27.549Z,27.68
2018-08-17T15:39:27.548Z,27.58
2018-08-17T15:40:27.526Z,27.63
2018-08-17T15:41:27.665Z,27.50
2018-08-17T15:42:27.505Z,27.55
2018-08-17T15:43:27.495Z,27.49
2018-08-17T15:44:27.494Z,27.49
2018-08-17T15:45:27.486Z,27.34
2018-08-17T15:46:27.462Z,27.33
2018-08-17T15:47:27.451Z,27.25
2018-08-17T15:48:27.443Z,27.24
2018-08-17T15:49:27.440Z,27.05
2018-08-17T15:50:27.423Z,27.06
2018-08-17T15:51:27.409Z,27.11
2018-08-17T15:52:27.397Z,27.15
2018-08-17T15:53:27.386Z,27.05
2018-08-17T15:54:27.388Z,27.02
2018-08-17T15:55:27.363Z,26.91
2018-08-17T15:56:27.361Z,26.88
2018-08-17T15:57:27.407Z,26.84
2018-08-17T15:58:27.336Z,26.76
2018-08-17T15:59:27.336Z,26.73
2018-08-17T16:00:27.358Z,26.68
2018-08-17T16:01:27.364Z,26.73
2018-08-17T16:02:27.290Z,26.64
2018-08-17T16:03:27.280Z,26.54
2018-08-17T16:04:27.280Z,26.59
2018-08-17T16:05:27.257Z,26.46
2018-08-17T16:06:27.246Z,26.51
2018-08-17T16:07:27.238Z,26.42
2018-08-17T16:08:27.305Z,26.35
2018-08-17T16:09:27.224Z,26.28
2018-08-17T16:10:27.264Z,26.24
2018-08-17T16:11:27.192Z,26.13
2018-08-17T16:12:27.180Z,26.09
2018-08-17T16:13:27.170Z,26.12
2018-08-17T16:14:27.170Z,26.01
2018-08-17T16:15:27.148Z,25.91
2018-08-17T16:16:27.184Z,25.97
2018-08-17T16:17:27.127Z,25.89
2018-08-17T16:18:27.252Z,25.93
2018-08-17T16:19:27.130Z,25.93
2018-08-17T16:20:27.094Z,25.91
2018-08-17T16:21:27.087Z,25.91
2018-08-17T16:22:27.075Z,25.83
2018-08-17T16:23:27.065Z,25.85
2018-08-17T16:24:27.131Z,25.82
2018-08-17T16:25:27.042Z,25.79
2018-08-17T16:26:27.117Z,25.79
2018-08-17T16:27:27.018Z,25.74
2018-08-17T16:28:27.008Z,25.76
2018-08-17T16:29:27.008Z,25.78
2018-08-17T16:30:26.991Z,25.81
2018-08-17T16:31:26.980Z,25.72
2018-08-17T16:32:26.964Z,25.74
2018-08-17T16:33:26.953Z,25.66
2018-08-17T16:34:26.954Z,25.61
2018-08-17T16:35:26.932Z,25.51
2018-08-17T16:36:26.925Z,25.49
2018-08-17T16:37:26.937Z,25.49
2018-08-17T16:38:26.900Z,25.38
2018-08-17T16:39:26.899Z,25.17
2018-08-17T16:40:26.879Z,25.11
2018-08-17T16:41:26.869Z,25.04
2018-08-17T16:42:26.856Z,24.94
2018-08-17T16:43:26.846Z,24.89
2018-08-17T16:44:26.845Z,24.86
2018-08-17T16:45:26.825Z,24.80
2018-08-17T16:46:26.824Z,24.67
2018-08-17T16:47:26.801Z,24.64
2018-08-17T16:48:26.791Z,24.48
2018-08-17T16:49:26.793Z,24.48
2018-08-17T16:50:26.779Z,24.37
2018-08-17T16:51:26.761Z,24.14
2018-08-17T16:52:26.754Z,24.11